Time;durP1;ratioP1;P1;durP2;ratioP2;P2;SDS_P1;SDS_P2;PMS_P1;PMS_P2;Temp;Humidity;BMP_temperature;BMP_pressure;BME280_temperature;BME280_humidity;BME280_pressure;Samples;Min_cycle;Max_cycle;Signal;HPM_P1;HPM_P2
2023/05/14 00:00:38;;;;;;;5.55;3.55;;;;;;;;;;5069115;28;20049;-67
2023/05/14 00:03:05;;;;;;;5.43;3.55;;;;;;;;;;5067675;28;20405;-67
2023/05/14 00:05:32;;;;;;;5.03;3.70;;;;;;;;;;5067735;28;20075;-66
2023/05/14 00:07:59;;;;;;;7.05;3.38;;;;;;;;;;5070735;28;20045;-66
2023/05/14 00:10:27;;;;;;;5.55;3.40;;;;;;;;;;5072466;28;20135;-66
2023/05/14 00:12:54;;;;;;;5.93;3.85;;;;;;;;;;5063385;28;20055;-67
2023/05/14 00:15:21;;;;;;;5.15;3.15;;;;;;;;;;5066472;28;20049;-67
2023/05/14 00:17:50;;;;;;;4.47;3.30;;;;;;;;;;5061966;28;20059;-67
2023/05/14 00:20:17;;;;;;;7.32;3.47;;;;;;;;;;5061776;28;20072;-67
2023/05/14 00:22:44;;;;;;;8.70;3.13;;;;;;;;;;5062027;28;20063;-66
2023/05/14 00:25:12;;;;;;;5.53;3.10;;;;;;;;;;5060820;28;20059;-66
2023/05/14 00:27:39;;;;;;;5.32;3.10;;;;;;;;;;5067887;28;20052;-67
2023/05/14 00:30:07;;;;;;;3.55;2.30;;;;;;;;;;5062675;28;20059;-67
2023/05/14 00:32:34;;;;;;;5.45;2.60;;;;;;;;;;5058151;28;20060;-67
2023/05/14 00:35:03;;;;;;;5.35;2.30;;;;;;;;;;5067049;28;20052;-67
2023/05/14 00:37:30;;;;;;;3.80;2.53;;;;;;;;;;5067308;28;20132;-66
2023/05/14 00:39:57;;;;;;;4.88;2.70;;;;;;;;;;5063063;28;20041;-66
2023/05/14 00:42:26;;;;;;;5.10;2.63;;;;;;;;;;5067174;28;20083;-67
2023/05/14 00:44:53;;;;;;;4.78;2.40;;;;;;;;;;5066080;28;20036;-67
2023/05/14 00:47:20;;;;;;;3.88;2.17;;;;;;;;;;5065765;28;20051;-67
2023/05/14 00:49:50;;;;;;;4.97;2.17;;;;;;;;;;5071545;28;20427;-67
2023/05/14 00:52:19;;;;;;;6.80;2.58;;;;;;;;;;5068951;28;20091;-67
2023/05/14 00:54:47;;;;;;;3.72;2.20;;;;;;;;;;5060375;28;20064;-66
2023/05/14 00:57:15;;;;;;;7.38;2.50;;;;;;;;;;5062007;28;20044;-67
2023/05/14 00:59:42;;;;;;;5.10;2.38;;;;;;;;;;5065573;28;20241;-67
2023/05/14 01:02:09;;;;;;;6.43;3.10;;;;;;;;;;5066383;28;20056;-67
2023/05/14 01:04:37;;;;;;;7.50;3.38;;;;;;;;;;5066665;28;20139;-67
2023/05/14 01:07:09;;;;;;;7.85;3.85;;;;;;;;;;5072678;28;20048;-67
2023/05/14 01:09:43;;;;;;;6.70;3.30;;;;;;;;;;5073175;28;20048;-67
2023/05/14 01:12:15;;;;;;;5.22;3.10;;;;;;;;;;5071899;28;20102;-67
2023/05/14 01:14:54;;;;;;;4.00;2.60;;;;;;;;;;5071723;28;20044;-66
2023/05/14 01:17:22;;;;;;;7.28;3.05;;;;;;;;;;5071272;28;20052;-66
2023/05/14 01:19:50;;;;;;;8.73;2.60;;;;;;;;;;5071053;28;20127;-66
2023/05/14 01:22:19;;;;;;;8.20;2.60;;;;;;;;;;5067072;28;20132;-66
2023/05/14 01:24:46;;;;;;;8.15;3.22;;;;;;;;;;5063836;28;20073;-66
2023/05/14 01:27:17;;;;;;;7.32;3.58;;;;;;;;;;5068700;28;20045;-67
2023/05/14 01:29:48;;;;;;;5.85;3.47;;;;;;;;;;5071121;28;20086;-67
2023/05/14 01:32:16;;;;;;;6.03;3.70;;;;;;;;;;5066308;28;20052;-66
2023/05/14 01:34:45;;;;;;;7.22;3.67;;;;;;;;;;5063552;28;20064;-67
2023/05/14 01:37:12;;;;;;;7.25;3.88;;;;;;;;;;5069672;28;20044;-66
2023/05/14 01:39:42;;;;;;;7.63;3.67;;;;;;;;;;5071449;28;20060;-67
2023/05/14 01:42:09;;;;;;;7.63;3.60;;;;;;;;;;5071933;28;20492;-67
2023/05/14 01:44:37;;;;;;;8.07;3.80;;;;;;;;;;5071654;28;20498;-67
2023/05/14 01:47:04;;;;;;;7.50;4.15;;;;;;;;;;5068094;28;20045;-67
2023/05/14 01:49:31;;;;;;;9.32;4.15;;;;;;;;;;5070867;28;20059;-67
2023/05/14 01:51:58;;;;;;;8.80;4.68;;;;;;;;;;5070210;28;20142;-66
2023/05/14 01:54:26;;;;;;;7.28;4.60;;;;;;;;;;5069752;28;20483;-67
2023/05/14 01:56:54;;;;;;;7.82;4.72;;;;;;;;;;5063995;28;20037;-67
2023/05/14 01:59:21;;;;;;;10.95;5.10;;;;;;;;;;5076147;28;20049;-67
2023/05/14 02:01:49;;;;;;;9.85;5.13;;;;;;;;;;5072192;28;20506;-66
2023/05/14 02:04:16;;;;;;;11.20;5.18;;;;;;;;;;5070269;28;20051;-66
2023/05/14 02:06:43;;;;;;;8.13;5.47;;;;;;;;;;5077612;28;20408;-67
2023/05/14 02:09:10;;;;;;;10.43;5.32;;;;;;;;;;5070834;28;20040;-67
2023/05/14 02:11:38;;;;;;;10.63;5.60;;;;;;;;;;5063309;28;20049;-66
2023/05/14 02:14:06;;;;;;;8.20;5.38;;;;;;;;;;5068322;28;20102;-67
2023/05/14 02:16:33;;;;;;;14.23;5.20;;;;;;;;;;5071732;28;20048;-67
2023/05/14 02:19:01;;;;;;;8.57;5.22;;;;;;;;;;5068818;28;20045;-67
2023/05/14 02:21:28;;;;;;;12.90;5.68;;;;;;;;;;5071073;28;20419;-66
2023/05/14 02:23:56;;;;;;;10.15;5.38;;;;;;;;;;5068342;28;20056;-66
2023/05/14 02:26:23;;;;;;;9.77;5.07;;;;;;;;;;5067063;28;20036;-67
2023/05/14 02:28:50;;;;;;;8.70;5.28;;;;;;;;;;5069678;28;20056;-66
2023/05/14 02:31:19;;;;;;;9.10;4.75;;;;;;;;;;5063784;28;20055;-67
2023/05/14 02:33:46;;;;;;;9.13;4.80;;;;;;;;;;5071067;28;20058;-67
2023/05/14 02:36:15;;;;;;;6.88;4.07;;;;;;;;;;5069026;28;20045;-67
2023/05/14 02:38:43;;;;;;;9.15;4.30;;;;;;;;;;5065136;28;20064;-67
2023/05/14 02:41:10;;;;;;;6.75;4.30;;;;;;;;;;5071440;28;20045;-67
2023/05/14 02:43:37;;;;;;;9.02;4.25;;;;;;;;;;5067550;28;20448;-67
2023/05/14 02:46:04;;;;;;;8.40;3.60;;;;;;;;;;5068937;28;20059;-67
2023/05/14 02:48:33;;;;;;;9.70;4.28;;;;;;;;;;5070087;28;20044;-66
2023/05/14 02:51:00;;;;;;;6.95;3.80;;;;;;;;;;5071135;28;20389;-68
2023/05/14 02:53:28;;;;;;;6.93;4.13;;;;;;;;;;5068577;28;20048;-67
2023/05/14 02:55:55;;;;;;;7.18;3.45;;;;;;;;;;5071345;28;20484;-67
2023/05/14 02:58:22;;;;;;;6.32;3.50;;;;;;;;;;5075590;28;20049;-67
2023/05/14 03:00:49;;;;;;;7.85;3.58;;;;;;;;;;5066767;28;20053;-66
2023/05/14 03:03:16;;;;;;;6.57;3.30;;;;;;;;;;5057828;28;20489;-67
2023/05/14 03:05:45;;;;;;;6.30;3.40;;;;;;;;;;5071717;28;20048;-67
2023/05/14 03:08:12;;;;;;;7.18;3.25;;;;;;;;;;5066618;28;20056;-67
2023/05/14 03:10:40;;;;;;;6.57;3.15;;;;;;;;;;5064495;28;20060;-66
2023/05/14 03:13:07;;;;;;;7.75;3.40;;;;;;;;;;5067538;28;20590;-67
2023/05/14 03:15:34;;;;;;;10.80;3.25;;;;;;;;;;5068292;28;20076;-67
2023/05/14 03:18:01;;;;;;;4.28;3.08;;;;;;;;;;5069825;28;20496;-67
2023/05/14 03:20:29;;;;;;;5.93;3.10;;;;;;;;;;5068953;28;20060;-69
2023/05/14 03:22:57;;;;;;;7.70;3.50;;;;;;;;;;5063618;28;20123;-67
2023/05/14 03:25:25;;;;;;;6.35;3.50;;;;;;;;;;5067448;28;20052;-67
2023/05/14 03:27:52;;;;;;;12.10;3.47;;;;;;;;;;5061367;28;20087;-67
2023/05/14 03:30:19;;;;;;;10.15;3.05;;;;;;;;;;5066356;28;20376;-67
2023/05/14 03:32:47;;;;;;;9.93;3.75;;;;;;;;;;5069942;28;20048;-67
2023/05/14 03:35:14;;;;;;;9.25;3.50;;;;;;;;;;5068417;28;20044;-67
2023/05/14 03:37:41;;;;;;;10.10;4.00;;;;;;;;;;5068474;28;20055;-67
2023/05/14 03:40:10;;;;;;;9.10;3.67;;;;;;;;;;5067435;28;20051;-67
2023/05/14 03:42:38;;;;;;;11.32;4.13;;;;;;;;;;5055917;28;20106;-67
2023/05/14 03:45:05;;;;;;;7.53;3.95;;;;;;;;;;5060065;28;20056;-67
2023/05/14 03:47:33;;;;;;;5.93;3.67;;;;;;;;;;5078919;28;20508;-67
2023/05/14 03:50:00;;;;;;;6.63;3.75;;;;;;;;;;5069699;28;20048;-66
2023/05/14 03:52:27;;;;;;;9.27;3.92;;;;;;;;;;5070270;28;20538;-67
2023/05/14 03:54:54;;;;;;;9.15;3.55;;;;;;;;;;5069014;28;20761;-66
2023/05/14 03:57:23;;;;;;;6.72;3.40;;;;;;;;;;5069783;28;20480;-67
2023/05/14 03:59:50;;;;;;;6.97;3.47;;;;;;;;;;5068633;28;20052;-67
2023/05/14 04:02:17;;;;;;;8.90;3.45;;;;;;;;;;5070528;28;20762;-68
2023/05/14 04:04:45;;;;;;;8.77;3.33;;;;;;;;;;5070237;28;20044;-67
2023/05/14 04:07:12;;;;;;;8.05;3.28;;;;;;;;;;5068277;28;20056;-67
2023/05/14 04:09:39;;;;;;;6.18;3.25;;;;;;;;;;5066688;28;20048;-67
2023/05/14 04:12:07;;;;;;;8.85;3.35;;;;;;;;;;5067515;28;20047;-67
2023/05/14 04:14:36;;;;;;;6.97;3.63;;;;;;;;;;5068515;28;20472;-67
2023/05/14 04:17:03;;;;;;;8.13;4.05;;;;;;;;;;5069436;28;20413;-67
2023/05/14 04:19:30;;;;;;;8.18;3.95;;;;;;;;;;5067954;28;20036;-67
2023/05/14 04:21:57;;;;;;;5.90;3.70;;;;;;;;;;5069014;28;20534;-67
2023/05/14 04:24:24;;;;;;;11.23;4.82;;;;;;;;;;5066138;28;20469;-67
2023/05/14 04:26:52;;;;;;;8.48;4.47;;;;;;;;;;5065689;28;20049;-67
2023/05/14 04:29:19;;;;;;;9.95;4.63;;;;;;;;;;5061764;28;20049;-67
2023/05/14 04:31:48;;;;;;;7.88;4.15;;;;;;;;;;5065445;28;20071;-67
2023/05/14 04:34:15;;;;;;;10.43;4.13;;;;;;;;;;5069059;28;20048;-66
2023/05/14 04:36:42;;;;;;;8.95;3.55;;;;;;;;;;5072330;28;20045;-66
2023/05/14 04:39:11;;;;;;;10.52;3.65;;;;;;;;;;5068767;28;20054;-67
2023/05/14 04:41:38;;;;;;;6.47;3.58;;;;;;;;;;5069171;28;20507;-67
2023/05/14 04:44:05;;;;;;;8.52;3.75;;;;;;;;;;5076850;28;20395;-67
2023/05/14 04:46:33;;;;;;;9.93;3.92;;;;;;;;;;5069087;28;20051;-67
2023/05/14 04:49:01;;;;;;;9.80;3.40;;;;;;;;;;5077335;28;20400;-67
2023/05/14 04:51:28;;;;;;;7.90;3.60;;;;;;;;;;5069036;28;20056;-68
2023/05/14 04:53:56;;;;;;;7.18;3.35;;;;;;;;;;5069237;28;20055;-67
2023/05/14 04:56:23;;;;;;;5.70;3.05;;;;;;;;;;5071771;28;20052;-67
2023/05/14 04:58:50;;;;;;;11.45;3.38;;;;;;;;;;5071408;28;20422;-67
2023/05/14 05:01:17;;;;;;;4.85;2.70;;;;;;;;;;5068376;28;20060;-67
2023/05/14 05:03:45;;;;;;;7.68;2.80;;;;;;;;;;5067502;28;20483;-67
2023/05/14 05:06:13;;;;;;;8.20;2.83;;;;;;;;;;5074267;28;20045;-67
2023/05/14 05:08:40;;;;;;;5.05;2.90;;;;;;;;;;5063507;28;20045;-67
2023/05/14 05:11:07;;;;;;;5.63;2.40;;;;;;;;;;5065880;28;20696;-67
2023/05/14 05:13:35;;;;;;;8.68;3.10;;;;;;;;;;5068576;28;20052;-67
2023/05/14 05:16:02;;;;;;;7.65;2.75;;;;;;;;;;5067638;28;20132;-67
2023/05/14 05:18:29;;;;;;;5.75;3.03;;;;;;;;;;5068296;28;20514;-67
2023/05/14 05:20:56;;;;;;;9.05;3.33;;;;;;;;;;5064996;28;20051;-67
2023/05/14 05:23:25;;;;;;;8.43;3.33;;;;;;;;;;5063947;28;20048;-66
2023/05/14 05:25:52;;;;;;;7.10;3.03;;;;;;;;;;5064548;28;20044;-66
2023/05/14 05:28:20;;;;;;;11.38;3.85;;;;;;;;;;5067645;28;20044;-66
2023/05/14 05:30:47;;;;;;;5.82;3.05;;;;;;;;;;5063196;28;20045;-66
2023/05/14 05:33:14;;;;;;;7.05;3.05;;;;;;;;;;5071122;28;20701;-67
2023/05/14 05:35:43;;;;;;;8.02;3.10;;;;;;;;;;5062127;28;20060;-66
2023/05/14 05:38:10;;;;;;;7.85;3.30;;;;;;;;;;5064906;28;20040;-67
2023/05/14 05:40:39;;;;;;;10.82;3.65;;;;;;;;;;5068092;28;20059;-66
2023/05/14 05:43:06;;;;;;;6.57;2.97;;;;;;;;;;5070481;28;20051;-66
2023/05/14 05:45:33;;;;;;;5.25;2.72;;;;;;;;;;5066263;28;20064;-67
2023/05/14 05:48:00;;;;;;;8.18;3.28;;;;;;;;;;5069013;28;20059;-67
2023/05/14 05:50:28;;;;;;;7.28;2.97;;;;;;;;;;5067160;28;20071;-67
2023/05/14 05:52:55;;;;;;;11.40;2.53;;;;;;;;;;5070420;28;20049;-67
2023/05/14 05:55:22;;;;;;;11.43;2.97;;;;;;;;;;5065811;28;20048;-67
2023/05/14 05:57:51;;;;;;;9.02;2.55;;;;;;;;;;5068399;28;20040;-67
2023/05/14 06:00:19;;;;;;;7.28;2.38;;;;;;;;;;5067943;28;20400;-66
2023/05/14 06:02:47;;;;;;;8.43;2.42;;;;;;;;;;5066894;28;20052;-67
2023/05/14 06:05:14;;;;;;;6.32;2.03;;;;;;;;;;5074288;28;20044;-67
2023/05/14 06:07:41;;;;;;;4.85;2.20;;;;;;;;;;5067448;28;20052;-66
2023/05/14 06:10:09;;;;;;;5.97;1.80;;;;;;;;;;5074708;28;20040;-69
2023/05/14 06:12:36;;;;;;;8.10;2.65;;;;;;;;;;5070147;28;20052;-68
2023/05/14 06:15:11;;;;;;;8.00;1.85;;;;;;;;;;5064031;28;20446;-69
2023/05/14 06:17:38;;;;;;;7.57;1.88;;;;;;;;;;5069253;28;20053;-69
2023/05/14 06:20:06;;;;;;;4.50;1.60;;;;;;;;;;5070767;28;20076;-69
2023/05/14 06:22:34;;;;;;;8.02;2.25;;;;;;;;;;5069975;28;20056;-69
2023/05/14 06:25:01;;;;;;;4.07;1.75;;;;;;;;;;5064983;28;20045;-69
2023/05/14 06:27:28;;;;;;;6.57;1.60;;;;;;;;;;5069742;28;20052;-69
2023/05/14 06:29:55;;;;;;;5.70;1.55;;;;;;;;;;5064371;28;20378;-68
2023/05/14 06:32:24;;;;;;;4.88;2.10;;;;;;;;;;5068732;28;20048;-69
2023/05/14 06:34:51;;;;;;;6.70;1.90;;;;;;;;;;5063147;28;20140;-69
2023/05/14 06:37:19;;;;;;;4.82;1.73;;;;;;;;;;5065453;28;20487;-68
2023/05/14 06:39:48;;;;;;;4.65;2.00;;;;;;;;;;5071101;28;20155;-68
2023/05/14 06:42:16;;;;;;;6.03;2.03;;;;;;;;;;5069469;28;20044;-69
2023/05/14 06:44:43;;;;;;;6.68;2.47;;;;;;;;;;5071439;28;20048;-68
2023/05/14 06:47:10;;;;;;;7.43;2.15;;;;;;;;;;5068213;28;20056;-69
2023/05/14 06:49:39;;;;;;;8.98;2.20;;;;;;;;;;5074136;28;20052;-69
2023/05/14 06:52:06;;;;;;;7.05;2.13;;;;;;;;;;5075924;28;20048;-69
2023/05/14 06:54:34;;;;;;;5.35;2.42;;;;;;;;;;5069394;28;20052;-69
2023/05/14 06:57:02;;;;;;;10.82;2.42;;;;;;;;;;5074577;28;20816;-69
2023/05/14 06:59:29;;;;;;;6.30;2.55;;;;;;;;;;5067863;28;20048;-69
2023/05/14 07:01:56;;;;;;;7.38;2.13;;;;;;;;;;5075548;28;20049;-69
2023/05/14 07:04:23;;;;;;;5.35;1.90;;;;;;;;;;5069403;28;20062;-68
2023/05/14 07:06:52;;;;;;;3.63;1.85;;;;;;;;;;5069971;28;20396;-69
2023/05/14 07:09:19;;;;;;;4.10;1.65;;;;;;;;;;5067897;28;20546;-69
2023/05/14 07:11:46;;;;;;;5.20;1.92;;;;;;;;;;5070180;28;20060;-69
2023/05/14 07:14:14;;;;;;;4.93;2.05;;;;;;;;;;5066563;28;20650;-69
2023/05/14 07:16:41;;;;;;;4.75;2.17;;;;;;;;;;5069382;28;20102;-69
2023/05/14 07:19:08;;;;;;;6.53;2.17;;;;;;;;;;5072062;28;20095;-69
2023/05/14 07:21:36;;;;;;;7.00;1.80;;;;;;;;;;5067749;28;20053;-69
2023/05/14 07:24:05;;;;;;;9.75;2.38;;;;;;;;;;5069128;28;20049;-69
2023/05/14 07:26:32;;;;;;;6.68;2.03;;;;;;;;;;5069349;28;20044;-69
2023/05/14 07:28:59;;;;;;;5.28;2.47;;;;;;;;;;5064883;28;20055;-69
2023/05/14 07:31:26;;;;;;;4.40;2.38;;;;;;;;;;5064318;28;20406;-69
2023/05/14 07:33:54;;;;;;;7.63;2.35;;;;;;;;;;5066473;28;20045;-69
2023/05/14 07:36:21;;;;;;;9.50;2.75;;;;;;;;;;5063228;28;20044;-69
2023/05/14 07:38:48;;;;;;;7.95;2.30;;;;;;;;;;5067277;28;20423;-69
2023/05/14 07:41:17;;;;;;;6.97;2.58;;;;;;;;;;5070211;28;20052;-69
2023/05/14 07:43:44;;;;;;;4.28;2.10;;;;;;;;;;5072030;28;20060;-69
2023/05/14 07:46:11;;;;;;;10.55;2.08;;;;;;;;;;5074569;28;20057;-69
2023/05/14 07:48:39;;;;;;;6.18;2.30;;;;;;;;;;5069006;28;20480;-69
2023/05/14 07:51:06;;;;;;;5.72;2.05;;;;;;;;;;5078311;28;20052;-69
2023/05/14 07:53:33;;;;;;;6.05;2.33;;;;;;;;;;5068689;28;20044;-69
2023/05/14 07:56:00;;;;;;;3.90;1.90;;;;;;;;;;5066322;28;20557;-69
2023/05/14 07:58:29;;;;;;;5.30;2.25;;;;;;;;;;5068209;28;20048;-69
2023/05/14 08:00:57;;;;;;;4.57;2.47;;;;;;;;;;5069848;28;20076;-70
2023/05/14 08:03:24;;;;;;;5.82;1.80;;;;;;;;;;5070006;28;20044;-69
2023/05/14 08:05:51;;;;;;;5.93;2.13;;;;;;;;;;5070311;28;20052;-69
2023/05/14 08:08:18;;;;;;;7.57;2.03;;;;;;;;;;5068883;28;20076;-69
2023/05/14 08:10:46;;;;;;;4.50;1.98;;;;;;;;;;5066829;28;20052;-69
2023/05/14 08:13:13;;;;;;;6.30;2.40;;;;;;;;;;5069660;28;20097;-69
2023/05/14 08:15:41;;;;;;;4.40;2.33;;;;;;;;;;5068681;28;20504;-69
2023/05/14 08:18:09;;;;;;;8.52;2.38;;;;;;;;;;5070017;28;20075;-69
2023/05/14 08:20:36;;;;;;;7.68;2.38;;;;;;;;;;5067099;28;20182;-69
2023/05/14 08:23:06;;;;;;;5.40;2.20;;;;;;;;;;5065280;28;20462;-69
2023/05/14 08:25:33;;;;;;;5.20;2.22;;;;;;;;;;5065936;28;20810;-69
2023/05/14 08:28:01;;;;;;;2.80;1.70;;;;;;;;;;5068593;28;20041;-69
2023/05/14 08:30:28;;;;;;;3.63;1.75;;;;;;;;;;5064675;28;20137;-69
2023/05/14 08:32:57;;;;;;;6.05;2.10;;;;;;;;;;5069182;28;20060;-69
2023/05/14 08:35:24;;;;;;;4.88;2.05;;;;;;;;;;5069019;28;20040;-69
2023/05/14 08:37:51;;;;;;;5.05;2.10;;;;;;;;;;5066295;28;20526;-69
2023/05/14 08:40:18;;;;;;;9.70;2.53;;;;;;;;;;5067898;28;20090;-69
2023/05/14 08:42:46;;;;;;;7.53;1.90;;;;;;;;;;5070335;28;20051;-69
2023/05/14 08:45:16;;;;;;;5.55;2.35;;;;;;;;;;5067799;28;20505;-69
2023/05/14 08:47:45;;;;;;;6.70;2.30;;;;;;;;;;5069101;28;20048;-69
2023/05/14 08:50:14;;;;;;;5.25;1.60;;;;;;;;;;5069015;28;20503;-69
2023/05/14 08:52:41;;;;;;;3.88;1.73;;;;;;;;;;5067217;28;20072;-69
2023/05/14 08:55:09;;;;;;;5.20;2.42;;;;;;;;;;5066229;28;20388;-69
2023/05/14 08:57:36;;;;;;;6.20;2.00;;;;;;;;;;5069181;28;20519;-69
2023/05/14 09:00:07;;;;;;;4.60;1.83;;;;;;;;;;5066792;28;20056;-69
2023/05/14 09:02:34;;;;;;;8.15;2.15;;;;;;;;;;5068881;28;20143;-69
2023/05/14 09:05:02;;;;;;;4.38;2.30;;;;;;;;;;5069530;28;20048;-69
2023/05/14 09:07:31;;;;;;;5.22;2.10;;;;;;;;;;5067513;28;20049;-69
2023/05/14 09:09:58;;;;;;;6.03;2.30;;;;;;;;;;5062339;28;20055;-69
2023/05/14 09:12:26;;;;;;;6.38;2.10;;;;;;;;;;5065315;28;20048;-69
2023/05/14 09:14:53;;;;;;;3.55;1.92;;;;;;;;;;5074141;28;20052;-69
2023/05/14 09:17:20;;;;;;;6.95;1.90;;;;;;;;;;5069250;28;20063;-69
2023/05/14 09:19:51;;;;;;;5.32;1.90;;;;;;;;;;5066946;28;20048;-69
2023/05/14 09:22:19;;;;;;;2.97;1.77;;;;;;;;;;5065934;28;20052;-69
2023/05/14 09:25:02;;;;;;;5.78;1.90;;;;;;;;;;5071462;28;20209;-69
2023/05/14 09:27:30;;;;;;;6.32;1.92;;;;;;;;;;5068145;28;20051;-69
2023/05/14 09:29:57;;;;;;;4.00;1.75;;;;;;;;;;5068273;28;20072;-69
2023/05/14 09:32:24;;;;;;;4.97;2.00;;;;;;;;;;5069287;28;20044;-69
2023/05/14 09:34:51;;;;;;;7.50;2.22;;;;;;;;;;5063080;28;20045;-69
2023/05/14 09:37:19;;;;;;;4.82;1.83;;;;;;;;;;5066598;28;20056;-69
2023/05/14 09:39:47;;;;;;;2.75;1.83;;;;;;;;;;5072334;28;20060;-69
2023/05/14 09:42:15;;;;;;;6.47;2.30;;;;;;;;;;5070920;28;20137;-69
2023/05/14 09:44:42;;;;;;;6.22;2.15;;;;;;;;;;5071969;28;20057;-69
2023/05/14 09:47:09;;;;;;;8.93;1.92;;;;;;;;;;5070741;28;20041;-69
2023/05/14 09:49:36;;;;;;;4.63;1.95;;;;;;;;;;5070353;28;20044;-69
2023/05/14 09:52:07;;;;;;;4.38;1.85;;;;;;;;;;5070168;28;20127;-69
2023/05/14 09:54:34;;;;;;;5.40;2.20;;;;;;;;;;5069425;28;20060;-69
2023/05/14 09:57:03;;;;;;;4.00;2.20;;;;;;;;;;5070604;28;20063;-70
2023/05/14 09:59:30;;;;;;;3.83;2.10;;;;;;;;;;5071318;28;20135;-69
2023/05/14 10:01:58;;;;;;;5.25;1.80;;;;;;;;;;5062587;28;20479;-69
2023/05/14 10:04:25;;;;;;;5.80;2.00;;;;;;;;;;5071383;28;20435;-69
2023/05/14 10:06:54;;;;;;;4.68;2.13;;;;;;;;;;5064652;28;20056;-70
2023/05/14 10:09:25;;;;;;;6.00;2.25;;;;;;;;;;5072701;28;20531;-69
2023/05/14 10:11:54;;;;;;;3.10;2.03;;;;;;;;;;5071065;28;20080;-70
2023/05/14 10:14:25;;;;;;;4.22;2.00;;;;;;;;;;5067247;28;20052;-69
2023/05/14 10:16:53;;;;;;;5.50;2.40;;;;;;;;;;5065533;28;20049;-70
2023/05/14 10:19:21;;;;;;;6.63;3.03;;;;;;;;;;5063150;28;20040;-70
2023/05/14 10:21:50;;;;;;;5.40;2.85;;;;;;;;;;5075138;28;20407;-69
2023/05/14 10:24:17;;;;;;;5.70;2.75;;;;;;;;;;5069188;28;20052;-70
2023/05/14 10:26:45;;;;;;;6.68;3.10;;;;;;;;;;5071902;28;20056;-70
2023/05/14 10:29:13;;;;;;;6.85;2.83;;;;;;;;;;5069682;28;20072;-71
2023/05/14 10:31:52;;;;;;;6.32;2.70;;;;;;;;;;5063115;28;20052;-70
2023/05/14 10:34:32;;;;;;;5.03;2.40;;;;;;;;;;5069475;28;20067;-70
2023/05/14 10:37:00;;;;;;;8.05;2.50;;;;;;;;;;5064163;28;20066;-70
2023/05/14 10:39:40;;;;;;;4.30;2.08;;;;;;;;;;5071263;28;20156;-70
2023/05/14 10:42:08;;;;;;;6.00;2.95;;;;;;;;;;5068903;28;20049;-70
2023/05/14 10:44:36;;;;;;;6.40;2.40;;;;;;;;;;5067943;28;20098;-70
2023/05/14 10:47:05;;;;;;;7.05;2.60;;;;;;;;;;5067425;28;20060;-70
2023/05/14 10:49:32;;;;;;;6.45;2.55;;;;;;;;;;5070755;28;20431;-70
2023/05/14 10:52:00;;;;;;;6.68;2.58;;;;;;;;;;5069196;28;20056;-70
2023/05/14 10:54:28;;;;;;;5.47;2.53;;;;;;;;;;5069865;28;20063;-70
2023/05/14 10:56:59;;;;;;;6.65;2.30;;;;;;;;;;5069689;28;20420;-70
2023/05/14 10:59:27;;;;;;;5.68;2.47;;;;;;;;;;5068484;28;20045;-70
2023/05/14 11:01:55;;;;;;;3.58;2.30;;;;;;;;;;5071441;28;20388;-70
2023/05/14 11:04:25;;;;;;;4.95;2.33;;;;;;;;;;5073076;28;20515;-70
2023/05/14 11:06:54;;;;;;;7.03;2.28;;;;;;;;;;5070737;28;20471;-71
2023/05/14 11:09:22;;;;;;;5.60;2.10;;;;;;;;;;5068091;28;20041;-70
2023/05/14 11:11:49;;;;;;;5.40;2.40;;;;;;;;;;5062701;28;20135;-70
2023/05/14 11:14:16;;;;;;;5.35;2.42;;;;;;;;;;5066182;28;20069;-70
2023/05/14 11:16:44;;;;;;;3.75;2.47;;;;;;;;;;5074486;28;20298;-70
2023/05/14 11:19:11;;;;;;;5.82;2.35;;;;;;;;;;5069505;28;20051;-70
2023/05/14 11:21:40;;;;;;;7.22;2.78;;;;;;;;;;5070342;28;20060;-70
2023/05/14 11:24:07;;;;;;;4.22;2.28;;;;;;;;;;5067086;28;20522;-71
2023/05/14 11:26:34;;;;;;;5.18;2.67;;;;;;;;;;5068622;28;20053;-70
2023/05/14 11:29:02;;;;;;;5.35;2.67;;;;;;;;;;5070079;28;20083;-70
2023/05/14 11:31:29;;;;;;;5.57;2.60;;;;;;;;;;5064817;28;20053;-70
2023/05/14 11:33:56;;;;;;;5.82;2.78;;;;;;;;;;5068800;28;20044;-70
2023/05/14 11:36:23;;;;;;;7.43;3.00;;;;;;;;;;5067723;28;20380;-70
2023/05/14 11:38:52;;;;;;;5.07;3.00;;;;;;;;;;5069631;28;20051;-71
2023/05/14 11:41:21;;;;;;;7.30;3.30;;;;;;;;;;5069838;28;20508;-70
2023/05/14 11:43:49;;;;;;;6.07;2.97;;;;;;;;;;5065186;28;20064;-71
2023/05/14 11:46:19;;;;;;;6.65;2.55;;;;;;;;;;5069355;28;20046;-71
2023/05/14 11:48:46;;;;;;;5.30;3.00;;;;;;;;;;5064319;28;20045;-71
2023/05/14 11:51:13;;;;;;;7.97;4.00;;;;;;;;;;5069571;28;20055;-71
2023/05/14 11:53:41;;;;;;;5.63;3.00;;;;;;;;;;5069198;28;20051;-70
2023/05/14 11:56:10;;;;;;;8.25;3.13;;;;;;;;;;5063857;28;20063;-72
2023/05/14 11:58:37;;;;;;;5.82;3.00;;;;;;;;;;5062619;28;20048;-71
2023/05/14 12:01:04;;;;;;;6.85;3.30;;;;;;;;;;5065283;28;20056;-71
2023/05/14 12:03:32;;;;;;;7.38;3.20;;;;;;;;;;5070005;28;20041;-71
2023/05/14 12:06:00;;;;;;;5.82;3.08;;;;;;;;;;5067100;28;20052;-71
2023/05/14 12:08:29;;;;;;;5.30;2.90;;;;;;;;;;5065839;28;20044;-71
2023/05/14 12:10:56;;;;;;;5.93;3.20;;;;;;;;;;5067198;28;20052;-71
2023/05/14 12:13:27;;;;;;;7.15;3.35;;;;;;;;;;5064366;28;20504;-71
2023/05/14 12:15:56;;;;;;;5.60;3.60;;;;;;;;;;5068192;28;20087;-70
2023/05/14 12:18:23;;;;;;;4.72;3.00;;;;;;;;;;5068281;28;20094;-70
2023/05/14 12:20:51;;;;;;;4.45;2.75;;;;;;;;;;5067858;28;20049;-70
2023/05/14 12:23:25;;;;;;;6.28;3.08;;;;;;;;;;5064205;28;20488;-70
2023/05/14 12:25:52;;;;;;;5.10;3.35;;;;;;;;;;5066371;28;20041;-71
2023/05/14 12:28:20;;;;;;;5.72;2.70;;;;;;;;;;5068609;28;20067;-70
2023/05/14 12:30:49;;;;;;;6.93;3.28;;;;;;;;;;5061858;28;20531;-71
2023/05/14 12:33:17;;;;;;;4.43;2.90;;;;;;;;;;5062190;28;20127;-70
2023/05/14 12:35:44;;;;;;;6.13;3.30;;;;;;;;;;5061628;28;20040;-70
2023/05/14 12:38:11;;;;;;;5.78;3.28;;;;;;;;;;5060927;28;20091;-71
2023/05/14 12:40:38;;;;;;;6.45;3.08;;;;;;;;;;5064533;28;20052;-71
2023/05/14 12:43:05;;;;;;;4.75;3.33;;;;;;;;;;5062906;28;20048;-70
2023/05/14 12:45:33;;;;;;;5.25;3.20;;;;;;;;;;5057323;28;20044;-70
2023/05/14 12:48:01;;;;;;;5.95;3.15;;;;;;;;;;5056321;28;20041;-71
2023/05/14 12:50:28;;;;;;;6.80;3.78;;;;;;;;;;5062165;28;20481;-70
2023/05/14 12:52:56;;;;;;;3.85;2.90;;;;;;;;;;5062085;28;20610;-70
2023/05/14 12:55:23;;;;;;;5.32;3.38;;;;;;;;;;5065299;28;20049;-70
2023/05/14 12:57:51;;;;;;;5.68;3.63;;;;;;;;;;5062402;28;20044;-71
2023/05/14 13:00:18;;;;;;;4.05;3.30;;;;;;;;;;5066351;28;20404;-71
2023/05/14 13:02:45;;;;;;;8.10;3.55;;;;;;;;;;5067984;28;20056;-70
2023/05/14 13:05:14;;;;;;;5.53;3.38;;;;;;;;;;5069885;28;20049;-71
2023/05/14 13:07:41;;;;;;;6.10;3.30;;;;;;;;;;5073955;28;20052;-70
2023/05/14 13:10:10;;;;;;;6.10;3.75;;;;;;;;;;5068903;28;20130;-70
2023/05/14 13:12:37;;;;;;;4.20;3.22;;;;;;;;;;5070144;28;20106;-70
2023/05/14 13:15:05;;;;;;;5.68;3.75;;;;;;;;;;5070661;28;20131;-70
2023/05/14 13:17:32;;;;;;;6.07;3.50;;;;;;;;;;5067170;28;20489;-70
2023/05/14 13:19:59;;;;;;;6.82;3.95;;;;;;;;;;5060143;28;20045;-70
2023/05/14 13:22:28;;;;;;;4.72;3.70;;;;;;;;;;5065075;28;20048;-69
2023/05/14 13:24:55;;;;;;;8.32;4.15;;;;;;;;;;5069194;28;20415;-70
2023/05/14 13:27:22;;;;;;;7.90;4.47;;;;;;;;;;5071862;28;20052;-70
2023/05/14 13:29:50;;;;;;;6.70;4.22;;;;;;;;;;5067167;28;20044;-71
2023/05/14 13:32:17;;;;;;;7.13;4.55;;;;;;;;;;5069433;28;20127;-71
2023/05/14 13:34:44;;;;;;;6.18;4.20;;;;;;;;;;5069653;28;20440;-71
2023/05/14 13:37:11;;;;;;;9.13;4.75;;;;;;;;;;5073295;28;20052;-70
2023/05/14 13:39:40;;;;;;;5.93;4.63;;;;;;;;;;5072413;28;20047;-71
2023/05/14 13:42:07;;;;;;;6.68;4.40;;;;;;;;;;5067768;28;20056;-71
2023/05/14 13:44:35;;;;;;;8.60;4.43;;;;;;;;;;5070553;28;20082;-70
2023/05/14 13:47:03;;;;;;;6.38;4.18;;;;;;;;;;5066166;28;20048;-70
2023/05/14 13:49:30;;;;;;;5.50;3.97;;;;;;;;;;5070103;28;20048;-71
2023/05/14 13:51:57;;;;;;;6.13;4.25;;;;;;;;;;5073144;28;20057;-70
2023/05/14 13:54:24;;;;;;;7.22;4.07;;;;;;;;;;5068485;28;20297;-70
2023/05/14 13:56:53;;;;;;;6.65;4.25;;;;;;;;;;5070064;28;20068;-70
2023/05/14 13:59:20;;;;;;;6.53;3.75;;;;;;;;;;5068459;28;20053;-70
2023/05/14 14:01:48;;;;;;;7.05;3.50;;;;;;;;;;5064971;28;20048;-70
2023/05/14 14:04:16;;;;;;;6.50;3.42;;;;;;;;;;5067242;28;20449;-70
2023/05/14 14:06:43;;;;;;;4.63;3.20;;;;;;;;;;5066079;28;20045;-70
2023/05/14 14:09:12;;;;;;;7.57;3.30;;;;;;;;;;5058968;28;20048;-70
2023/05/14 14:11:39;;;;;;;4.35;2.97;;;;;;;;;;5069091;28;20496;-70
2023/05/14 14:14:08;;;;;;;5.45;3.17;;;;;;;;;;5061243;28;20089;-70
2023/05/14 14:16:35;;;;;;;4.82;3.03;;;;;;;;;;5068144;28;20059;-70
2023/05/14 14:19:02;;;;;;;7.10;3.53;;;;;;;;;;5066794;28;20380;-70
2023/05/14 14:21:30;;;;;;;5.30;3.40;;;;;;;;;;5066437;28;20140;-70
2023/05/14 14:23:57;;;;;;;4.47;3.22;;;;;;;;;;5069062;28;20052;-70
2023/05/14 14:26:26;;;;;;;5.07;3.10;;;;;;;;;;5068315;28;20063;-70
2023/05/14 14:28:53;;;;;;;6.40;3.70;;;;;;;;;;5067124;28;20509;-70
2023/05/14 14:31:22;;;;;;;4.18;3.42;;;;;;;;;;5062441;28;20074;-71
2023/05/14 14:33:49;;;;;;;5.20;3.60;;;;;;;;;;5064195;28;20427;-71
2023/05/14 14:36:17;;;;;;;6.47;3.55;;;;;;;;;;5068650;28;20044;-71
2023/05/14 14:38:44;;;;;;;5.00;3.00;;;;;;;;;;5064986;28;20491;-71
2023/05/14 14:41:11;;;;;;;5.72;3.42;;;;;;;;;;5055734;28;20503;-71
2023/05/14 14:43:39;;;;;;;4.60;4.03;;;;;;;;;;5061055;28;20052;-70
2023/05/14 14:46:07;;;;;;;6.57;3.42;;;;;;;;;;5060244;28;20610;-71